| Date | Time | Temp. (oF) | Dew Point (oF) | Rel. Hum. (%) | Press. (in.) | Wind Dir. | Wind Speed (mph) | Hourly Rainfall (in.) |
|
|---|---|---|---|---|---|---|---|---|---|
| 1 | 04/08 | 00:00 | 31 | 31 | 100 | 30.32 | NE | 7 | 0.00 |
| 2 | 04/07 | 23:00 | 31 | 31 | 100 | 30.35 | NNE | 4 | 0.00 |
| 3 | 04/07 | 22:00 | 31 | 31 | 100 | 30.35 | NE | 6 | 0.00 |
| 4 | 04/07 | 21:00 | 31 | 31 | 100 | 30.37 | NNE | 6 | 0.00 |
| 5 | 04/07 | 20:00 | 31 | 31 | 100 | 30.37 | NE | 6 | 0.00 |
| 6 | 04/07 | 19:00 | 31 | 31 | 100 | 30.36 | NNE | 8 | 0.00 |
| 7 | 04/07 | 18:00 | 32 | 32 | 100 | 30.35 | NE | 7 | 0.01 |
| 8 | 04/07 | 17:00 | 32 | 32 | 100 | 30.36 | ENE | 8 | 0.00 |
| 9 | 04/07 | 16:00 | 33 | 32 | 100 | 30.35 | ENE | 12 | 0.00 |
| 10 | 04/07 | 15:00 | 32 | 32 | 100 | 30.37 | NE | 9 | 0.01 |
| 11 | 04/07 | 14:00 | 31 | 31 | 100 | 30.41 | NE | 12 | 0.00 |
| 12 | 04/07 | 13:00 | 30 | 30 | 100 | 30.45 | NE | 8 | 0.06 |
| 13 | 04/07 | 12:00 | 29 | 28 | 100 | 30.48 | NE | 6 | 0.06 |
| 14 | 04/07 | 11:00 | 29 | 28 | 100 | 30.51 | NE | 10 | 0.07 |
| 15 | 04/07 | 10:00 | 30 | 30 | 100 | 30.48 | ENE | 7 | 0.06 |
| 16 | 04/07 | 09:00 | 32 | 29 | 89 | 30.50 | ESE | 3 | 0.00 |
| 17 | 04/07 | 08:00 | 36 | 27 | 70 | 30.50 | NE | 7 | 0.00 |
| 18 | miss | miss | miss | miss | miss | miss | miss | miss | |
| 19 | 04/07 | 06:00 | 36 | 26 | 68 | 30.51 | NE | 8 | 0.00 |
| 20 | 04/07 | 05:00 | 37 | 23 | 58 | 30.51 | SE | 4 | 0.00 |
| 21 | 04/07 | 04:00 | 37 | 23 | 59 | 30.49 | ESE | 5 | 0.00 |
| 22 | 04/07 | 03:00 | 38 | 25 | 60 | 30.50 | NNE | 5 | 0.00 |
| 23 | 04/07 | 02:00 | 39 | 25 | 57 | 30.52 | ESE | 6 | 0.00 |
| 24 | 04/07 | 01:00 | 40 | 24 | 54 | 30.51 | NE | 4 | 0.00 |